createdAt,value
2018-11-04T00:00:34.469Z,1015.69
2018-11-04T00:01:34.461Z,1015.67
2018-11-04T00:02:34.425Z,1015.71
2018-11-04T00:03:34.406Z,1015.70
2018-11-04T00:04:34.381Z,1015.74
2018-11-04T00:05:34.357Z,1015.72
2018-11-04T00:06:34.336Z,1015.74
2018-11-04T00:07:34.317Z,1015.67
2018-11-04T00:08:34.293Z,1015.69
2018-11-04T00:09:34.268Z,1015.68
2018-11-04T00:10:34.247Z,1015.68
2018-11-04T00:11:34.227Z,1015.66
2018-11-04T00:12:34.226Z,1015.61
2018-11-04T00:13:34.182Z,1015.62
2018-11-04T00:14:34.166Z,1015.60
2018-11-04T00:15:34.138Z,1015.56
2018-11-04T00:16:34.131Z,1015.60
2018-11-04T00:17:34.100Z,1015.59
2018-11-04T00:18:34.081Z,1015.54
2018-11-04T00:19:34.054Z,1015.56
2018-11-04T00:20:34.029Z,1015.55
2018-11-04T00:21:34.015Z,1015.49
2018-11-04T00:22:33.989Z,1015.51
2018-11-04T00:23:33.967Z,1015.51
2018-11-04T00:24:33.948Z,1015.50
2018-11-04T00:25:33.926Z,1015.49
2018-11-04T00:26:33.908Z,1015.50
2018-11-04T00:27:33.882Z,1015.44
2018-11-04T00:28:33.859Z,1015.43
2018-11-04T00:29:33.846Z,1015.42
2018-11-04T00:30:33.816Z,1015.39
2018-11-04T00:31:33.794Z,1015.37
2018-11-04T00:32:33.774Z,1015.32
2018-11-04T00:33:33.755Z,1015.32
2018-11-04T00:34:33.784Z,1015.29
2018-11-04T00:35:33.717Z,1015.29
2018-11-04T00:36:33.690Z,1015.30
2018-11-04T00:37:33.673Z,1015.29
2018-11-04T00:38:33.649Z,1015.28
2018-11-04T00:39:33.631Z,1015.28
2018-11-04T00:40:33.600Z,1015.27
2018-11-04T00:41:33.581Z,1015.29
2018-11-04T00:42:33.566Z,1015.31
2018-11-04T00:43:33.538Z,1015.30
2018-11-04T00:44:33.516Z,1015.26
2018-11-04T00:45:33.556Z,1015.25
2018-11-04T00:46:33.477Z,1015.23
2018-11-04T00:47:33.450Z,1015.17
2018-11-04T00:48:33.489Z,1015.15
2018-11-04T00:49:33.410Z,1015.14
2018-11-04T00:50:33.392Z,1015.13
2018-11-04T00:51:33.367Z,1015.09
2018-11-04T00:52:33.341Z,1015.10
2018-11-04T00:53:33.320Z,1015.12
2018-11-04T00:54:33.299Z,1015.11
2018-11-04T00:55:33.280Z,1015.11
2018-11-04T00:56:33.261Z,1015.11
2018-11-04T00:57:33.236Z,1015.11
2018-11-04T00:58:33.217Z,1015.12
2018-11-04T00:59:33.193Z,1015.09
2018-11-04T01:00:33.171Z,1015.07
2018-11-04T01:01:33.229Z,1015.05
2018-11-04T01:02:33.128Z,1015.04
2018-11-04T01:03:33.108Z,1015.01
2018-11-04T01:04:33.088Z,1014.99
2018-11-04T01:05:33.064Z,1015.00
2018-11-04T01:06:33.043Z,1014.99
2018-11-04T01:07:33.024Z,1014.99
2018-11-04T01:08:32.997Z,1014.94
2018-11-04T01:09:33.021Z,1014.93
2018-11-04T01:10:32.956Z,1014.90
2018-11-04T01:11:32.932Z,1014.87
2018-11-04T01:12:32.910Z,1014.88
2018-11-04T01:13:32.888Z,1014.88
2018-11-04T01:14:32.871Z,1014.87
2018-11-04T01:15:32.846Z,1014.83
2018-11-04T01:16:32.835Z,1014.77
2018-11-04T01:17:32.803Z,1014.75
2018-11-04T01:18:32.787Z,1014.73
2018-11-04T01:19:32.758Z,1014.67
2018-11-04T01:20:32.737Z,1014.70
2018-11-04T01:21:32.735Z,1014.73
2018-11-04T01:22:32.700Z,1014.71
2018-11-04T01:23:32.672Z,1014.71
2018-11-04T01:24:32.754Z,1014.68
2018-11-04T01:25:32.628Z,1014.63
2018-11-04T01:26:32.606Z,1014.64
2018-11-04T01:27:32.585Z,1014.62
2018-11-04T01:28:32.563Z,1014.60
2018-11-04T01:29:32.549Z,1014.59
2018-11-04T01:30:32.521Z,1014.60
2018-11-04T01:31:32.498Z,1014.58
2018-11-04T01:32:32.475Z,1014.57
2018-11-04T01:33:32.457Z,1014.58
2018-11-04T01:34:32.431Z,1014.57
2018-11-04T01:35:32.408Z,1014.58
2018-11-04T01:36:32.391Z,1014.54
2018-11-04T01:37:32.366Z,1014.50
2018-11-04T01:38:32.345Z,1014.49
2018-11-04T01:39:32.323Z,1014.50
2018-11-04T01:40:32.305Z,1014.52
2018-11-04T01:41:32.280Z,1014.51
2018-11-04T01:42:32.264Z,1014.51
2018-11-04T01:43:32.236Z,1014.54
2018-11-04T01:44:32.214Z,1014.55
2018-11-04T01:45:32.196Z,1014.51
2018-11-04T01:46:32.171Z,1014.50
2018-11-04T01:47:32.153Z,1014.50
2018-11-04T01:48:32.128Z,1014.48
2018-11-04T01:49:32.110Z,1014.46
2018-11-04T01:50:32.085Z,1014.43
2018-11-04T01:51:32.063Z,1014.43
2018-11-04T01:52:32.040Z,1014.40
2018-11-04T01:53:32.025Z,1014.36
2018-11-04T01:54:31.998Z,1014.39
2018-11-04T01:55:31.976Z,1014.33
2018-11-04T01:56:31.955Z,1014.33
2018-11-04T01:57:31.942Z,1014.31
2018-11-04T01:58:31.914Z,1014.27
2018-11-04T01:59:31.888Z,1014.23
2018-11-04T02:00:31.871Z,1014.25
2018-11-04T02:01:31.848Z,1014.25
2018-11-04T02:02:31.824Z,1014.25
2018-11-04T02:03:31.806Z,1014.27
2018-11-04T02:04:31.782Z,1014.21
2018-11-04T02:05:31.760Z,1014.17
2018-11-04T02:06:31.760Z,1014.18
2018-11-04T02:07:31.720Z,1014.13
2018-11-04T02:08:31.693Z,1014.14
2018-11-04T02:09:31.675Z,1014.14
2018-11-04T02:10:31.650Z,1014.09
2018-11-04T02:11:31.628Z,1014.08
2018-11-04T02:12:31.608Z,1014.05
2018-11-04T02:13:31.592Z,1014.02
2018-11-04T02:14:31.562Z,1014.01
2018-11-04T02:15:31.591Z,1013.95
2018-11-04T02:16:31.523Z,1013.94
2018-11-04T02:17:31.496Z,1013.93
2018-11-04T02:18:31.476Z,1013.95
2018-11-04T02:19:31.462Z,1013.89
2018-11-04T02:20:31.434Z,1013.89
2018-11-04T02:21:31.420Z,1013.89
2018-11-04T02:22:31.388Z,1013.88
2018-11-04T02:23:31.367Z,1013.88
2018-11-04T02:24:31.347Z,1013.85
2018-11-04T02:25:31.321Z,1013.82
2018-11-04T02:26:31.305Z,1013.79
2018-11-04T02:27:31.281Z,1013.76
2018-11-04T02:28:31.258Z,1013.76
2018-11-04T02:29:31.245Z,1013.73
2018-11-04T02:30:31.213Z,1013.69
2018-11-04T02:31:31.195Z,1013.67
2018-11-04T02:32:31.175Z,1013.68
2018-11-04T02:33:31.153Z,1013.68
2018-11-04T02:34:31.125Z,1013.63
2018-11-04T02:35:31.111Z,1013.66
2018-11-04T02:36:31.085Z,1013.66
2018-11-04T02:37:31.061Z,1013.65
2018-11-04T02:38:31.048Z,1013.60
2018-11-04T02:39:31.019Z,1013.63
2018-11-04T02:40:30.996Z,1013.62
2018-11-04T02:41:30.982Z,1013.61
2018-11-04T02:42:30.950Z,1013.63
2018-11-04T02:43:30.942Z,1013.60
2018-11-04T02:44:30.908Z,1013.60
2018-11-04T02:45:30.888Z,1013.64
2018-11-04T02:46:30.863Z,1013.66
2018-11-04T02:47:30.844Z,1013.62
2018-11-04T02:48:30.825Z,1013.61
2018-11-04T02:49:30.802Z,1013.57
2018-11-04T02:50:30.785Z,1013.57
2018-11-04T02:51:30.757Z,1013.57
2018-11-04T02:52:30.735Z,1013.58
2018-11-04T02:53:30.716Z,1013.53
2018-11-04T02:54:30.693Z,1013.53
2018-11-04T02:55:30.671Z,1013.55
2018-11-04T02:56:30.663Z,1013.49
2018-11-04T02:57:30.641Z,1013.46
2018-11-04T02:58:30.602Z,1013.51
2018-11-04T02:59:30.588Z,1013.50
2018-11-04T03:00:30.571Z,1013.50
2018-11-04T03:01:30.546Z,1013.51
2018-11-04T03:02:30.512Z,1013.52
2018-11-04T03:03:30.491Z,1013.46
2018-11-04T03:04:30.472Z,1013.40
2018-11-04T03:05:30.446Z,1013.37
2018-11-04T03:06:30.425Z,1013.37
2018-11-04T03:07:30.404Z,1013.31
2018-11-04T03:08:30.380Z,1013.33
2018-11-04T03:09:30.362Z,1013.27
2018-11-04T03:10:30.338Z,1013.25
2018-11-04T03:11:30.316Z,1013.21
2018-11-04T03:12:30.294Z,1013.19
2018-11-04T03:13:30.282Z,1013.21
2018-11-04T03:14:30.298Z,1013.18
2018-11-04T03:15:30.229Z,1013.19
2018-11-04T03:16:30.207Z,1013.17
2018-11-04T03:17:30.184Z,1013.16
2018-11-04T03:18:30.161Z,1013.18
2018-11-04T03:19:30.141Z,1013.14
2018-11-04T03:20:30.119Z,1013.10
2018-11-04T03:21:30.101Z,1013.07
2018-11-04T03:22:30.074Z,1013.07
2018-11-04T03:23:30.052Z,1013.08
2018-11-04T03:24:30.058Z,1013.05
2018-11-04T03:25:30.010Z,1013.06
2018-11-04T03:26:29.988Z,1013.04
2018-11-04T03:27:29.964Z,1013.05
2018-11-04T03:28:29.941Z,1013.02
2018-11-04T03:29:29.921Z,1013.02
2018-11-04T03:30:29.905Z,1012.99
2018-11-04T03:31:29.876Z,1013.01
2018-11-04T03:32:29.854Z,1013.02
2018-11-04T03:33:29.840Z,1013.01
2018-11-04T03:34:29.811Z,1012.98
2018-11-04T03:35:29.787Z,1012.99
2018-11-04T03:36:29.765Z,1012.96
2018-11-04T03:37:29.744Z,1012.94
2018-11-04T03:38:29.721Z,1012.91
2018-11-04T03:39:29.705Z,1012.89
2018-11-04T03:40:29.681Z,1012.88
2018-11-04T03:41:29.664Z,1012.88
2018-11-04T03:42:29.631Z,1012.88
2018-11-04T03:43:29.612Z,1012.91
2018-11-04T03:44:29.597Z,1012.91
2018-11-04T03:45:29.570Z,1012.94
2018-11-04T03:46:29.546Z,1012.95
2018-11-04T03:47:29.524Z,1012.95
2018-11-04T03:48:29.500Z,1012.98
2018-11-04T03:49:29.492Z,1013.01
2018-11-04T03:50:29.455Z,1012.98
2018-11-04T03:51:29.433Z,1013.00
2018-11-04T03:52:29.411Z,1013.02
2018-11-04T03:53:29.392Z,1013.01
2018-11-04T03:54:29.368Z,1013.00
2018-11-04T03:55:29.349Z,1013.00
2018-11-04T03:56:29.323Z,1013.00
2018-11-04T03:57:29.302Z,1012.98
2018-11-04T03:58:29.279Z,1013.01
2018-11-04T03:59:29.259Z,1013.04
2018-11-04T04:00:29.241Z,1013.03
2018-11-04T04:01:29.222Z,1013.04
2018-11-04T04:02:29.197Z,1013.00
2018-11-04T04:03:29.178Z,1013.01
2018-11-04T04:04:29.171Z,1012.98
2018-11-04T04:05:29.125Z,1012.97
2018-11-04T04:06:29.108Z,1012.94
2018-11-04T04:07:29.083Z,1012.95
2018-11-04T04:08:29.060Z,1012.93
2018-11-04T04:09:29.037Z,1012.94
2018-11-04T04:10:29.014Z,1012.95
2018-11-04T04:11:28.995Z,1012.91
2018-11-04T04:12:28.984Z,1012.94
2018-11-04T04:13:28.948Z,1012.91
2018-11-04T04:14:28.928Z,1012.88
2018-11-04T04:15:28.905Z,1012.90
2018-11-04T04:16:28.884Z,1012.89
2018-11-04T04:17:28.861Z,1012.92
2018-11-04T04:18:28.841Z,1012.89
2018-11-04T04:19:28.817Z,1012.94
2018-11-04T04:20:28.794Z,1012.92
2018-11-04T04:21:28.771Z,1012.96
2018-11-04T04:22:28.749Z,1012.95
2018-11-04T04:23:28.729Z,1012.94
2018-11-04T04:24:28.705Z,1012.95
2018-11-04T04:25:28.683Z,1012.96
2018-11-04T04:26:28.660Z,1012.98
2018-11-04T04:27:28.642Z,1012.95
2018-11-04T04:28:28.618Z,1012.94
2018-11-04T04:29:28.595Z,1012.91
2018-11-04T04:30:28.575Z,1012.92
2018-11-04T04:31:28.551Z,1012.92
2018-11-04T04:32:28.533Z,1012.89
2018-11-04T04:33:28.509Z,1012.91
2018-11-04T04:34:28.485Z,1012.87
2018-11-04T04:35:28.463Z,1012.85
2018-11-04T04:36:28.448Z,1012.81
2018-11-04T04:37:28.421Z,1012.78
2018-11-04T04:38:28.397Z,1012.78
2018-11-04T04:39:28.374Z,1012.80
2018-11-04T04:40:28.354Z,1012.77
2018-11-04T04:41:28.331Z,1012.74
2018-11-04T04:42:28.312Z,1012.71
2018-11-04T04:43:28.299Z,1012.71
2018-11-04T04:44:28.266Z,1012.65
2018-11-04T04:45:28.246Z,1012.65
2018-11-04T04:46:28.223Z,1012.57
2018-11-04T04:47:28.207Z,1012.66
2018-11-04T04:48:28.179Z,1012.64
2018-11-04T04:49:28.157Z,1012.62
2018-11-04T04:50:28.142Z,1012.61
2018-11-04T04:51:28.108Z,1012.61
2018-11-04T04:52:28.106Z,1012.59
2018-11-04T04:53:28.065Z,1012.63
2018-11-04T04:54:28.041Z,1012.60
2018-11-04T04:55:28.025Z,1012.61
2018-11-04T04:56:28.001Z,1012.63
2018-11-04T04:57:27.976Z,1012.63
2018-11-04T04:58:27.952Z,1012.60
2018-11-04T04:59:27.932Z,1012.64
2018-11-04T05:00:27.911Z,1012.63
2018-11-04T05:01:27.893Z,1012.62
2018-11-04T05:02:27.873Z,1012.61
2018-11-04T05:03:27.846Z,1012.62
2018-11-04T05:04:27.824Z,1012.64
2018-11-04T05:05:27.801Z,1012.61
2018-11-04T05:06:27.778Z,1012.62
2018-11-04T05:07:27.755Z,1012.58
2018-11-04T05:08:27.736Z,1012.58
2018-11-04T05:09:27.711Z,1012.54
2018-11-04T05:10:27.691Z,1012.56
2018-11-04T05:11:27.667Z,1012.48
2018-11-04T05:12:27.646Z,1012.50
2018-11-04T05:13:27.627Z,1012.45
2018-11-04T05:14:27.604Z,1012.45
2018-11-04T05:15:27.578Z,1012.46
2018-11-04T05:16:27.556Z,1012.48
2018-11-04T05:17:27.536Z,1012.47
2018-11-04T05:18:27.514Z,1012.46
2018-11-04T05:19:27.498Z,1012.46
2018-11-04T05:20:27.467Z,1012.48
2018-11-04T05:21:27.451Z,1012.50
2018-11-04T05:22:27.424Z,1012.54
2018-11-04T05:23:27.405Z,1012.51
2018-11-04T05:24:27.382Z,1012.51
2018-11-04T05:25:27.363Z,1012.50
2018-11-04T05:26:27.337Z,1012.45
2018-11-04T05:27:27.312Z,1012.43
2018-11-04T05:28:27.298Z,1012.41
2018-11-04T05:29:27.273Z,1012.42
2018-11-04T05:30:27.256Z,1012.44
2018-11-04T05:31:27.237Z,1012.43
2018-11-04T05:32:27.203Z,1012.45
2018-11-04T05:33:27.183Z,1012.46
2018-11-04T05:34:27.164Z,1012.49
2018-11-04T05:35:27.142Z,1012.47
2018-11-04T05:36:27.115Z,1012.47
2018-11-04T05:37:27.096Z,1012.55
2018-11-04T05:38:27.167Z,1012.52
2018-11-04T05:39:27.054Z,1012.53
2018-11-04T05:40:27.028Z,1012.50
2018-11-04T05:41:27.006Z,1012.51
2018-11-04T05:42:26.986Z,1012.49
2018-11-04T05:43:26.961Z,1012.49
2018-11-04T05:44:26.939Z,1012.45
2018-11-04T05:45:26.919Z,1012.47
2018-11-04T05:46:26.894Z,1012.48
2018-11-04T05:47:26.874Z,1012.49
2018-11-04T05:48:26.852Z,1012.52
2018-11-04T05:49:26.830Z,1012.48
2018-11-04T05:50:26.807Z,1012.46
2018-11-04T05:51:26.785Z,1012.47
2018-11-04T05:52:26.768Z,1012.46
2018-11-04T05:53:26.741Z,1012.47
2018-11-04T05:54:26.723Z,1012.39
2018-11-04T05:55:26.696Z,1012.42
2018-11-04T05:56:26.687Z,1012.42
2018-11-04T05:57:26.653Z,1012.40
2018-11-04T05:58:26.634Z,1012.46
2018-11-04T05:59:26.609Z,1012.43
2018-11-04T06:00:26.590Z,1012.47
2018-11-04T06:01:26.571Z,1012.37
2018-11-04T06:02:26.546Z,1012.37
2018-11-04T06:03:26.521Z,1012.38
2018-11-04T06:04:26.502Z,1012.40
2018-11-04T06:05:26.480Z,1012.43
2018-11-04T06:06:26.458Z,1012.42
2018-11-04T06:07:26.433Z,1012.40
2018-11-04T06:08:26.414Z,1012.35
2018-11-04T06:09:26.394Z,1012.39
2018-11-04T06:10:26.370Z,1012.38
2018-11-04T06:11:26.350Z,1012.35
2018-11-04T06:12:26.327Z,1012.37
2018-11-04T06:13:26.308Z,1012.40
2018-11-04T06:14:26.290Z,1012.37
2018-11-04T06:15:26.264Z,1012.40
2018-11-04T06:16:26.240Z,1012.43
2018-11-04T06:17:26.225Z,1012.40
2018-11-04T06:18:26.196Z,1012.41
2018-11-04T06:19:26.207Z,1012.38
2018-11-04T06:20:26.152Z,1012.37
2018-11-04T06:21:26.135Z,1012.41
2018-11-04T06:22:26.110Z,1012.37
2018-11-04T06:23:26.088Z,1012.34
2018-11-04T06:24:26.067Z,1012.32
2018-11-04T06:25:26.044Z,1012.32
2018-11-04T06:26:26.022Z,1012.36
2018-11-04T06:27:26.010Z,1012.37
2018-11-04T06:28:25.979Z,1012.37
2018-11-04T06:29:25.960Z,1012.34
2018-11-04T06:30:25.942Z,1012.28
2018-11-04T06:31:25.923Z,1012.29
2018-11-04T06:32:25.895Z,1012.33
2018-11-04T06:33:25.876Z,1012.32
2018-11-04T06:34:25.863Z,1012.31
2018-11-04T06:35:25.827Z,1012.24
2018-11-04T06:36:25.815Z,1012.23
2018-11-04T06:37:25.789Z,1012.22
2018-11-04T06:38:25.764Z,1012.21
2018-11-04T06:39:25.741Z,1012.26
2018-11-04T06:40:25.724Z,1012.26
2018-11-04T06:41:25.699Z,1012.26
2018-11-04T06:42:25.675Z,1012.24
2018-11-04T06:43:25.658Z,1012.21
2018-11-04T06:44:25.640Z,1012.23
2018-11-04T06:45:25.611Z,1012.24
2018-11-04T06:46:25.594Z,1012.26
2018-11-04T06:47:25.617Z,1012.30
2018-11-04T06:48:25.552Z,1012.34
2018-11-04T06:49:25.527Z,1012.35
2018-11-04T06:50:25.505Z,1012.38
2018-11-04T06:51:25.481Z,1012.33
2018-11-04T06:52:25.459Z,1012.33
2018-11-04T06:53:25.440Z,1012.39
2018-11-04T06:54:25.419Z,1012.41
2018-11-04T06:55:25.397Z,1012.39
2018-11-04T06:56:25.375Z,1012.41
2018-11-04T06:57:25.361Z,1012.39
2018-11-04T06:58:25.336Z,1012.40
2018-11-04T06:59:25.313Z,1012.41
2018-11-04T07:00:25.288Z,1012.39
2018-11-04T07:01:25.268Z,1012.40
2018-11-04T07:02:25.247Z,1012.40
2018-11-04T07:03:25.224Z,1012.41
2018-11-04T07:04:25.206Z,1012.37
2018-11-04T07:05:25.181Z,1012.37
2018-11-04T07:06:25.160Z,1012.40
2018-11-04T07:07:25.147Z,1012.35
2018-11-04T07:08:25.124Z,1012.32
2018-11-04T07:09:25.104Z,1012.34
2018-11-04T07:10:25.078Z,1012.33
2018-11-04T07:11:25.053Z,1012.32
2018-11-04T07:12:25.038Z,1012.33
2018-11-04T07:13:25.011Z,1012.28
2018-11-04T07:14:24.993Z,1012.22
2018-11-04T07:15:24.967Z,1012.21
2018-11-04T07:16:24.946Z,1012.21
2018-11-04T07:17:24.936Z,1012.23
2018-11-04T07:18:24.904Z,1012.21
2018-11-04T07:19:24.882Z,1012.22
2018-11-04T07:20:24.863Z,1012.26
2018-11-04T07:21:24.841Z,1012.22
2018-11-04T07:22:24.821Z,1012.26
2018-11-04T07:23:24.795Z,1012.28
2018-11-04T07:24:24.777Z,1012.26
2018-11-04T07:25:24.809Z,1012.27
2018-11-04T07:26:24.732Z,1012.27
2018-11-04T07:27:24.714Z,1012.26
2018-11-04T07:28:24.691Z,1012.26
2018-11-04T07:29:24.671Z,1012.19
2018-11-04T07:30:24.652Z,1012.24
2018-11-04T07:31:24.626Z,1012.22
2018-11-04T07:32:24.606Z,1012.24
2018-11-04T07:33:24.585Z,1012.24
2018-11-04T07:34:24.562Z,1012.26
2018-11-04T07:35:24.540Z,1012.27
2018-11-04T07:36:24.524Z,1012.23
2018-11-04T07:37:24.503Z,1012.23
2018-11-04T07:38:24.520Z,1012.22
2018-11-04T07:39:24.478Z,1012.27
2018-11-04T07:40:24.440Z,1012.27
2018-11-04T07:41:24.422Z,1012.29
2018-11-04T07:42:24.393Z,1012.25
2018-11-04T07:43:24.374Z,1012.23
2018-11-04T07:44:24.514Z,1012.24
2018-11-04T07:45:24.330Z,1012.23
2018-11-04T07:46:24.308Z,1012.24
2018-11-04T07:47:24.294Z,1012.22
2018-11-04T07:48:24.266Z,1012.19
2018-11-04T07:49:24.245Z,1012.22
2018-11-04T07:50:24.239Z,1012.20
2018-11-04T07:51:24.265Z,1012.22
2018-11-04T07:52:24.183Z,1012.20
2018-11-04T07:53:24.159Z,1012.20
2018-11-04T07:54:24.137Z,1012.16
2018-11-04T07:55:24.129Z,1012.21
2018-11-04T07:56:24.093Z,1012.14
2018-11-04T07:57:24.074Z,1012.15
2018-11-04T07:58:24.053Z,1012.13
2018-11-04T07:59:24.037Z,1012.11
2018-11-04T08:00:24.013Z,1012.11
2018-11-04T08:01:23.989Z,1012.12
2018-11-04T08:02:23.969Z,1012.12
2018-11-04T08:03:23.974Z,1012.11
2018-11-04T08:04:23.927Z,1012.11
2018-11-04T08:05:23.912Z,1012.11
2018-11-04T08:06:23.882Z,1012.10
2018-11-04T08:07:23.863Z,1012.13
2018-11-04T08:08:23.845Z,1012.12
2018-11-04T08:09:23.826Z,1012.07
2018-11-04T08:10:23.805Z,1012.08
2018-11-04T08:11:23.780Z,1012.06
2018-11-04T08:12:23.761Z,1012.06
2018-11-04T08:13:23.762Z,1012.03
2018-11-04T08:14:23.717Z,1012.01
2018-11-04T08:15:23.695Z,1011.98
2018-11-04T08:16:23.676Z,1011.94
2018-11-04T08:17:23.659Z,1011.98
2018-11-04T08:18:23.678Z,1011.99
2018-11-04T08:19:23.616Z,1011.98
2018-11-04T08:20:23.594Z,1012.00
2018-11-04T08:21:23.638Z,1012.00
2018-11-04T08:22:23.553Z,1011.96
2018-11-04T08:23:23.531Z,1011.98
2018-11-04T08:24:23.509Z,1011.99
2018-11-04T08:25:23.489Z,1011.97
2018-11-04T08:26:23.468Z,1012.03
2018-11-04T08:27:23.445Z,1011.96
2018-11-04T08:28:23.439Z,1011.98
2018-11-04T08:29:23.406Z,1011.99
2018-11-04T08:30:23.384Z,1011.99
2018-11-04T08:31:23.362Z,1012.01
2018-11-04T08:32:23.347Z,1012.00
2018-11-04T08:33:23.323Z,1011.98
2018-11-04T08:34:23.299Z,1011.95
2018-11-04T08:35:23.279Z,1011.96
2018-11-04T08:36:23.256Z,1011.86
2018-11-04T08:37:23.236Z,1011.86
2018-11-04T08:38:23.216Z,1011.85
2018-11-04T08:39:23.200Z,1011.81
2018-11-04T08:40:23.299Z,1011.84
2018-11-04T08:41:23.155Z,1011.82
2018-11-04T08:42:23.144Z,1011.80
2018-11-04T08:43:23.117Z,1011.76
2018-11-04T08:44:23.095Z,1011.77
2018-11-04T08:45:23.078Z,1011.78
2018-11-04T08:46:23.054Z,1011.73
2018-11-04T08:47:23.034Z,1011.74
2018-11-04T08:48:23.011Z,1011.74
2018-11-04T08:49:23.000Z,1011.76
2018-11-04T08:50:22.969Z,1011.80
2018-11-04T08:51:22.950Z,1011.78
2018-11-04T08:52:22.946Z,1011.78
2018-11-04T08:53:22.911Z,1011.79
2018-11-04T08:54:22.889Z,1011.78
2018-11-04T08:55:22.867Z,1011.80
2018-11-04T08:56:22.847Z,1011.78
2018-11-04T08:57:22.830Z,1011.80
2018-11-04T08:58:22.817Z,1011.78
2018-11-04T08:59:22.786Z,1011.79
2018-11-04T09:00:22.764Z,1011.78
2018-11-04T09:01:22.745Z,1011.73
2018-11-04T09:02:22.728Z,1011.75
2018-11-04T09:03:22.701Z,1011.71
2018-11-04T09:04:22.704Z,1011.68
2018-11-04T09:05:22.668Z,1011.67
2018-11-04T09:06:22.664Z,1011.69
2018-11-04T09:07:22.627Z,1011.70
2018-11-04T09:08:22.602Z,1011.67
2018-11-04T09:09:22.586Z,1011.66
2018-11-04T09:10:22.561Z,1011.68
2018-11-04T09:11:22.541Z,1011.62
2018-11-04T09:12:22.520Z,1011.64
2018-11-04T09:13:22.502Z,1011.62
2018-11-04T09:14:22.624Z,1011.62
2018-11-04T09:15:22.460Z,1011.63
2018-11-04T09:16:22.440Z,1011.61
2018-11-04T09:17:22.423Z,1011.62
2018-11-04T09:18:22.400Z,1011.58
2018-11-04T09:19:22.383Z,1011.55
2018-11-04T09:20:22.363Z,1011.50
2018-11-04T09:21:22.339Z,1011.50
2018-11-04T09:22:22.474Z,1011.51
2018-11-04T09:23:22.305Z,1011.51
2018-11-04T09:24:22.291Z,1011.47
2018-11-04T09:25:22.266Z,1011.47
2018-11-04T09:26:22.236Z,1011.46
2018-11-04T09:27:22.218Z,1011.46
2018-11-04T09:28:22.198Z,1011.49
2018-11-04T09:29:22.422Z,1011.46
2018-11-04T09:30:22.158Z,1011.45
2018-11-04T09:31:22.142Z,1011.49
2018-11-04T09:32:22.121Z,1011.47
2018-11-04T09:33:22.098Z,1011.46
2018-11-04T09:34:22.079Z,1011.45
2018-11-04T09:35:22.194Z,1011.45
2018-11-04T09:36:22.089Z,1011.41
2018-11-04T09:37:22.028Z,1011.40
2018-11-04T09:38:21.997Z,1011.43
2018-11-04T09:39:21.980Z,1011.41
2018-11-04T09:40:21.961Z,1011.37
2018-11-04T09:41:21.940Z,1011.40
2018-11-04T09:42:21.920Z,1011.39
2018-11-04T09:43:21.898Z,1011.41
2018-11-04T09:44:21.879Z,1011.41
2018-11-04T09:45:21.861Z,1011.40
2018-11-04T09:46:21.839Z,1011.41
2018-11-04T09:47:21.826Z,1011.41
2018-11-04T09:48:21.804Z,1011.37
2018-11-04T09:49:21.785Z,1011.44
2018-11-04T09:50:21.763Z,1011.41
2018-11-04T09:51:21.751Z,1011.40
2018-11-04T09:52:21.722Z,1011.39
2018-11-04T09:53:21.701Z,1011.37
2018-11-04T09:54:21.680Z,1011.38
2018-11-04T09:55:21.661Z,1011.39
2018-11-04T09:56:21.677Z,1011.36
2018-11-04T09:57:21.622Z,1011.36
2018-11-04T09:58:21.615Z,1011.38
2018-11-04T09:59:21.581Z,1011.37
2018-11-04T10:00:21.565Z,1011.38
2018-11-04T10:01:21.550Z,1011.39
2018-11-04T10:02:21.522Z,1011.35
2018-11-04T10:03:21.511Z,1011.40
2018-11-04T10:04:21.488Z,1011.39
2018-11-04T10:05:21.468Z,1011.39
2018-11-04T10:06:21.448Z,1011.37
2018-11-04T10:07:21.433Z,1011.36
2018-11-04T10:08:21.414Z,1011.37
2018-11-04T10:09:21.387Z,1011.34
2018-11-04T10:10:21.374Z,1011.41
2018-11-04T10:11:21.355Z,1011.36
2018-11-04T10:12:21.335Z,1011.39
2018-11-04T10:13:21.364Z,1011.37
2018-11-04T10:14:21.291Z,1011.39
2018-11-04T10:15:21.277Z,1011.38
2018-11-04T10:16:21.311Z,1011.38
2018-11-04T10:17:21.251Z,1011.38
2018-11-04T10:18:21.213Z,1011.39
2018-11-04T10:19:21.463Z,1011.40
2018-11-04T10:20:21.406Z,1011.40
2018-11-04T10:21:21.157Z,1011.41
2018-11-04T10:22:21.143Z,1011.41
2018-11-04T10:23:21.129Z,1011.47
2018-11-04T10:24:21.103Z,1011.45
2018-11-04T10:25:21.088Z,1011.42
2018-11-04T10:26:21.062Z,1011.42
2018-11-04T10:27:21.042Z,1011.38
2018-11-04T10:28:21.026Z,1011.36
2018-11-04T10:29:21.004Z,1011.34
2018-11-04T10:30:21.100Z,1011.34
2018-11-04T10:31:20.976Z,1011.35
2018-11-04T10:32:20.951Z,1011.36
2018-11-04T10:33:20.934Z,1011.32
2018-11-04T10:34:20.907Z,1011.30
2018-11-04T10:35:20.899Z,1011.25
2018-11-04T10:36:20.960Z,1011.24
2018-11-04T10:37:20.859Z,1011.24
2018-11-04T10:38:20.833Z,1011.22
2018-11-04T10:39:20.809Z,1011.26
2018-11-04T10:40:20.793Z,1011.25
2018-11-04T10:41:20.782Z,1011.20
2018-11-04T10:42:20.828Z,1011.21
2018-11-04T10:43:20.736Z,1011.17
2018-11-04T10:44:20.721Z,1011.16
2018-11-04T10:45:20.699Z,1011.15
2018-11-04T10:46:20.697Z,1011.15
2018-11-04T10:47:20.662Z,1011.12
2018-11-04T10:48:20.642Z,1011.15
2018-11-04T10:49:20.738Z,1011.14
2018-11-04T10:50:20.604Z,1011.12
2018-11-04T10:51:20.593Z,1011.13
2018-11-04T10:52:20.565Z,1011.12
2018-11-04T10:53:20.549Z,1011.10
2018-11-04T10:54:20.536Z,1011.13
2018-11-04T10:55:20.514Z,1011.14
2018-11-04T10:56:20.495Z,1011.10
2018-11-04T10:57:20.476Z,1011.08
2018-11-04T10:58:20.454Z,1011.06
2018-11-04T10:59:20.432Z,1011.07
2018-11-04T11:00:20.422Z,1011.07
2018-11-04T11:01:20.403Z,1011.09
2018-11-04T11:02:20.384Z,1011.05
2018-11-04T11:03:20.363Z,1011.02
2018-11-04T11:04:20.348Z,1011.02
2018-11-04T11:05:20.325Z,1010.93
2018-11-04T11:06:20.312Z,1010.91
2018-11-04T11:07:20.284Z,1010.90
2018-11-04T11:08:20.265Z,1010.86
2018-11-04T11:09:20.250Z,1010.82
2018-11-04T11:10:20.229Z,1010.85
2018-11-04T11:11:20.215Z,1010.84
2018-11-04T11:12:20.191Z,1010.81
2018-11-04T11:13:20.178Z,1010.77
2018-11-04T11:14:20.159Z,1010.79
2018-11-04T11:15:20.134Z,1010.73
2018-11-04T11:16:20.121Z,1010.74
2018-11-04T11:17:20.101Z,1010.71
2018-11-04T11:18:20.093Z,1010.72
2018-11-04T11:19:20.069Z,1010.70
2018-11-04T11:20:20.044Z,1010.67
2018-11-04T11:21:20.024Z,1010.67
2018-11-04T11:22:20.013Z,1010.63
2018-11-04T11:23:20.022Z,1010.66
2018-11-04T11:24:19.975Z,1010.61
2018-11-04T11:25:19.948Z,1010.65
2018-11-04T11:26:19.928Z,1010.64
2018-11-04T11:27:19.909Z,1010.67
2018-11-04T11:28:19.895Z,1010.62
2018-11-04T11:29:19.873Z,1010.64
2018-11-04T11:30:19.951Z,1010.65
2018-11-04T11:31:19.834Z,1010.59
2018-11-04T11:32:19.825Z,1010.57
2018-11-04T11:33:19.797Z,1010.55
2018-11-04T11:34:19.782Z,1010.56
2018-11-04T11:35:19.759Z,1010.56
2018-11-04T11:36:19.740Z,1010.54
2018-11-04T11:37:19.756Z,1010.53
2018-11-04T11:38:19.708Z,1010.52
2018-11-04T11:39:19.698Z,1010.54
2018-11-04T11:40:19.669Z,1010.45
2018-11-04T11:41:19.652Z,1010.45
2018-11-04T11:42:19.637Z,1010.39
2018-11-04T11:43:19.613Z,1010.42
2018-11-04T11:44:19.602Z,1010.37
2018-11-04T11:45:19.572Z,1010.32
2018-11-04T11:46:19.552Z,1010.32
2018-11-04T11:47:19.535Z,1010.35
2018-11-04T11:48:19.517Z,1010.30
2018-11-04T11:49:19.499Z,1010.28
2018-11-04T11:50:19.479Z,1010.32
2018-11-04T11:51:19.466Z,1010.29
2018-11-04T11:52:19.449Z,1010.26
2018-11-04T11:53:19.425Z,1010.26
2018-11-04T11:54:19.406Z,1010.23
2018-11-04T11:55:19.390Z,1010.28
2018-11-04T11:56:19.376Z,1010.21
2018-11-04T11:57:19.350Z,1010.26
2018-11-04T11:58:19.330Z,1010.16
2018-11-04T11:59:19.355Z,1010.18
2018-11-04T12:00:19.294Z,1010.16
2018-11-04T12:01:19.281Z,1010.18
2018-11-04T12:02:19.341Z,1010.11
2018-11-04T12:03:19.252Z,1010.10
2018-11-04T12:04:19.225Z,1010.10
2018-11-04T12:05:19.261Z,1010.11